Time;durP1;ratioP1;P1;durP2;ratioP2;P2;SDS_P1;SDS_P2;PMS_P1;PMS_P2;Temp;Humidity;BMP_temperature;BMP_pressure;BME280_temperature;BME280_humidity;BME280_pressure;Samples;Min_cycle;Max_cycle;Signal;HPM_P1;HPM_P2
2022/06/26 00:00:46;;;;;;;6.45;6.05;;;;;;;;;;5034662;28;20068;-77
2022/06/26 00:03:11;;;;;;;6.60;6.10;;;;;;;;;;5036355;28;20151;-77
2022/06/26 00:05:37;;;;;;;6.65;6.03;;;;;;;;;;5034160;28;20079;-77
2022/06/26 00:08:03;;;;;;;6.38;5.95;;;;;;;;;;5027897;28;20028;-77
2022/06/26 00:10:28;;;;;;;6.70;6.10;;;;;;;;;;5034831;28;20025;-77
2022/06/26 00:12:54;;;;;;;7.03;6.13;;;;;;;;;;5030783;28;20029;-77
2022/06/26 00:15:20;;;;;;;7.13;6.00;;;;;;;;;;5033020;28;20430;-77
2022/06/26 00:17:46;;;;;;;7.38;6.47;;;;;;;;;;5036091;28;20033;-77
2022/06/26 00:20:13;;;;;;;6.40;6.00;;;;;;;;;;5026879;28;20050;-77
2022/06/26 00:22:39;;;;;;;7.55;6.15;;;;;;;;;;5024572;28;20039;-77
2022/06/26 00:25:05;;;;;;;6.60;6.20;;;;;;;;;;5032466;28;20413;-77
2022/06/26 00:27:31;;;;;;;8.77;6.40;;;;;;;;;;5024250;28;20065;-77
2022/06/26 00:29:57;;;;;;;6.45;6.00;;;;;;;;;;5030175;28;20064;-77
2022/06/26 00:32:22;;;;;;;6.63;6.22;;;;;;;;;;5041506;28;20111;-77
2022/06/26 00:34:48;;;;;;;7.22;6.72;;;;;;;;;;5034131;28;20030;-77
2022/06/26 00:37:14;;;;;;;7.22;6.72;;;;;;;;;;5038451;28;20039;-77
2022/06/26 00:39:39;;;;;;;7.25;6.60;;;;;;;;;;5033041;28;20230;-77
2022/06/26 00:42:06;;;;;;;7.50;6.85;;;;;;;;;;5038322;28;20033;-76
2022/06/26 00:44:31;;;;;;;7.38;6.88;;;;;;;;;;5027584;28;20118;-77
2022/06/26 00:46:57;;;;;;;7.78;7.10;;;;;;;;;;5022859;28;20037;-77
2022/06/26 00:49:23;;;;;;;7.78;7.28;;;;;;;;;;5026272;28;20052;-77
2022/06/26 00:51:53;;;;;;;7.45;6.82;;;;;;;;;;5028978;28;20030;-77
2022/06/26 00:54:20;;;;;;;7.25;6.75;;;;;;;;;;5028052;28;20121;-77
2022/06/26 00:56:46;;;;;;;7.28;6.75;;;;;;;;;;5028771;28;20608;-77
2022/06/26 00:59:13;;;;;;;7.65;7.00;;;;;;;;;;5024251;28;20111;-77
2022/06/26 01:01:39;;;;;;;7.00;6.50;;;;;;;;;;5028094;28;20632;-77
2022/06/26 01:04:05;;;;;;;7.53;6.80;;;;;;;;;;5026251;28;20037;-76
2022/06/26 01:06:31;;;;;;;6.72;6.32;;;;;;;;;;5026977;28;20057;-77
2022/06/26 01:08:58;;;;;;;7.72;6.70;;;;;;;;;;5011673;28;20110;-76
2022/06/26 01:11:27;;;;;;;7.72;6.78;;;;;;;;;;5027435;28;20034;-76
2022/06/26 01:13:56;;;;;;;7.03;6.53;;;;;;;;;;5025190;28;20029;-77
2022/06/26 01:16:23;;;;;;;7.43;6.80;;;;;;;;;;5025707;28;20072;-77
2022/06/26 01:18:55;;;;;;;7.10;6.50;;;;;;;;;;5022546;28;20033;-77
2022/06/26 01:21:24;;;;;;;7.25;6.70;;;;;;;;;;5028333;28;20104;-77
2022/06/26 01:23:50;;;;;;;7.97;6.70;;;;;;;;;;5026038;28;20037;-77
2022/06/26 01:26:17;;;;;;;6.78;6.28;;;;;;;;;;5027925;28;20037;-77
2022/06/26 01:28:43;;;;;;;6.95;6.40;;;;;;;;;;5027696;28;20048;-77
2022/06/26 01:31:09;;;;;;;7.00;6.57;;;;;;;;;;5026702;28;20033;-77
2022/06/26 01:33:36;;;;;;;6.65;6.10;;;;;;;;;;5027314;28;20511;-77
2022/06/26 01:36:02;;;;;;;6.63;6.13;;;;;;;;;;5039276;28;20435;-77
2022/06/26 01:38:28;;;;;;;7.13;6.63;;;;;;;;;;5026888;28;20048;-77
2022/06/26 01:40:55;;;;;;;7.45;6.80;;;;;;;;;;5032824;28;20030;-77
2022/06/26 01:43:27;;;;;;;7.63;6.75;;;;;;;;;;5030844;28;20121;-77
2022/06/26 01:45:54;;;;;;;7.57;6.88;;;;;;;;;;5026702;28;20486;-77
2022/06/26 01:48:26;;;;;;;7.22;6.72;;;;;;;;;;5026025;28;20041;-77
2022/06/26 01:50:55;;;;;;;7.72;7.03;;;;;;;;;;5027881;28;20083;-77
2022/06/26 01:53:21;;;;;;;7.65;6.95;;;;;;;;;;5021467;28;20104;-77
2022/06/26 01:55:48;;;;;;;7.47;6.97;;;;;;;;;;5026551;28;20025;-77
2022/06/26 01:58:19;;;;;;;9.43;6.72;;;;;;;;;;5022019;28;20072;-77
2022/06/26 02:00:46;;;;;;;6.68;6.28;;;;;;;;;;5027308;28;20136;-77
2022/06/26 02:03:14;;;;;;;7.20;6.70;;;;;;;;;;5027289;28;20036;-77
2022/06/26 02:05:41;;;;;;;7.05;6.47;;;;;;;;;;5022012;28;20033;-77
2022/06/26 02:08:07;;;;;;;6.97;6.38;;;;;;;;;;5027781;28;20075;-77
2022/06/26 02:13:36;;;;;;;6.85;6.25;;;;;;;;;;5026900;28;20048;-77
2022/06/26 02:16:09;;;;;;;6.63;6.22;;;;;;;;;;5027402;28;20037;-77
2022/06/26 02:18:35;;;;;;;7.07;6.57;;;;;;;;;;5027977;28;20449;-77
2022/06/26 02:21:01;;;;;;;6.53;6.03;;;;;;;;;;5025518;28;20040;-76
2022/06/26 02:23:28;;;;;;;6.60;6.10;;;;;;;;;;5026515;28;20096;-77
2022/06/26 02:25:54;;;;;;;6.97;6.35;;;;;;;;;;5026869;28;20500;-77
2022/06/26 02:28:20;;;;;;;7.35;6.60;;;;;;;;;;5026748;28;20038;-77
2022/06/26 02:30:46;;;;;;;6.45;5.85;;;;;;;;;;5021028;28;20038;-76
2022/06/26 02:33:12;;;;;;;6.72;6.18;;;;;;;;;;5026260;28;20037;-77
2022/06/26 02:35:38;;;;;;;6.35;5.95;;;;;;;;;;5027669;28;20083;-77
2022/06/26 02:38:04;;;;;;;7.90;6.40;;;;;;;;;;5026697;28;20409;-76
2022/06/26 02:40:30;;;;;;;7.00;6.40;;;;;;;;;;5024723;28;20049;-77
2022/06/26 02:42:56;;;;;;;6.57;6.18;;;;;;;;;;5026770;28;20114;-77
2022/06/26 02:45:23;;;;;;;6.88;6.30;;;;;;;;;;5026596;28;20048;-77
2022/06/26 02:47:49;;;;;;;6.30;5.90;;;;;;;;;;5026993;28;20033;-77
2022/06/26 02:50:16;;;;;;;7.05;6.45;;;;;;;;;;5024415;28;20500;-77
2022/06/26 02:52:43;;;;;;;6.93;6.38;;;;;;;;;;5026661;28;20022;-77
2022/06/26 02:55:10;;;;;;;6.93;6.43;;;;;;;;;;5021987;28;20038;-79
2022/06/26 02:57:40;;;;;;;7.32;6.63;;;;;;;;;;5026675;28;20029;-76
2022/06/26 03:00:07;;;;;;;7.43;6.80;;;;;;;;;;5026218;28;20122;-77
2022/06/26 03:02:35;;;;;;;6.90;6.30;;;;;;;;;;5025976;28;20036;-77
2022/06/26 03:05:04;;;;;;;6.95;6.45;;;;;;;;;;5024191;28;20112;-77
2022/06/26 03:07:29;;;;;;;7.00;6.50;;;;;;;;;;5037957;28;20116;-77
2022/06/26 03:09:58;;;;;;;;;;;;;;;;;;5027625;28;20346;-77
2022/06/26 03:12:25;;;;;;;7.35;6.80;;;;;;;;;;5024745;28;19920;-77
2022/06/26 03:14:51;;;;;;;7.18;6.53;;;;;;;;;;5026332;28;20038;-77
2022/06/26 03:17:17;;;;;;;7.40;6.80;;;;;;;;;;5026490;28;20043;-77
2022/06/26 03:19:44;;;;;;;7.50;6.90;;;;;;;;;;5024904;28;20048;-76
2022/06/26 03:22:10;;;;;;;7.30;6.80;;;;;;;;;;5031777;28;20444;-76
2022/06/26 03:24:36;;;;;;;7.68;6.97;;;;;;;;;;5025958;28;20504;-77
2022/06/26 03:27:02;;;;;;;7.55;6.80;;;;;;;;;;5026750;28;20044;-77
2022/06/26 03:29:30;;;;;;;7.20;6.70;;;;;;;;;;5026341;28;20554;-77
2022/06/26 03:31:56;;;;;;;7.68;6.90;;;;;;;;;;5024547;28;20049;-76
2022/06/26 03:34:22;;;;;;;7.43;6.68;;;;;;;;;;5041739;28;20037;-77
2022/06/26 03:36:48;;;;;;;7.38;6.78;;;;;;;;;;5027421;28;20032;-77
2022/06/26 03:39:15;;;;;;;7.70;7.03;;;;;;;;;;5025784;28;20041;-77
2022/06/26 03:41:41;;;;;;;11.40;9.70;;;;;;;;;;5035027;28;20493;-77
2022/06/26 03:44:07;;;;;;;8.30;7.70;;;;;;;;;;5032273;28;20480;-77
2022/06/26 03:46:33;;;;;;;7.05;6.65;;;;;;;;;;5030797;28;20036;-76
2022/06/26 03:49:02;;;;;;;7.38;6.75;;;;;;;;;;5035681;28;20492;-77
2022/06/26 03:51:29;;;;;;;7.40;6.70;;;;;;;;;;5032349;28;20033;-77
2022/06/26 03:53:55;;;;;;;7.15;6.63;;;;;;;;;;5034843;28;20037;-77
2022/06/26 03:56:21;;;;;;;7.10;6.60;;;;;;;;;;5044920;28;20091;-77
2022/06/26 03:58:48;;;;;;;7.00;6.60;;;;;;;;;;5034975;28;20116;-77
2022/06/26 04:01:17;;;;;;;7.30;6.80;;;;;;;;;;5016847;28;20037;-77
2022/06/26 04:03:45;;;;;;;7.40;6.90;;;;;;;;;;5029331;28;20033;-77
2022/06/26 04:06:12;;;;;;;7.03;6.55;;;;;;;;;;5025676;28;20520;-77
2022/06/26 04:08:37;;;;;;;6.70;6.30;;;;;;;;;;5032628;28;20061;-77
2022/06/26 04:11:06;;;;;;;7.60;6.97;;;;;;;;;;5035421;28;20028;-77
2022/06/26 04:13:35;;;;;;;7.47;6.75;;;;;;;;;;5030753;28;20041;-77
2022/06/26 04:16:02;;;;;;;7.22;6.60;;;;;;;;;;5032297;28;20071;-77
2022/06/26 04:18:28;;;;;;;6.93;6.43;;;;;;;;;;5028311;28;20056;-77
2022/06/26 04:20:54;;;;;;;6.65;6.25;;;;;;;;;;5027331;28;20108;-77
2022/06/26 04:23:20;;;;;;;6.70;6.30;;;;;;;;;;5027858;28;20607;-77
2022/06/26 04:25:48;;;;;;;7.05;6.43;;;;;;;;;;5029343;28;20140;-77
2022/06/26 04:28:14;;;;;;;7.10;6.70;;;;;;;;;;5026328;28;20185;-77
2022/06/26 04:30:42;;;;;;;7.15;6.65;;;;;;;;;;5028236;28;20420;-77
2022/06/26 04:33:08;;;;;;;6.90;6.40;;;;;;;;;;5021468;28;20029;-77
2022/06/26 04:35:34;;;;;;;6.97;6.47;;;;;;;;;;5028070;28;20116;-76
2022/06/26 04:38:01;;;;;;;6.95;6.45;;;;;;;;;;5037327;28;20033;-77
2022/06/26 04:40:28;;;;;;;6.97;6.38;;;;;;;;;;5027200;28;20049;-77
2022/06/26 04:42:53;;;;;;;7.22;6.78;;;;;;;;;;5024334;28;20029;-76
2022/06/26 04:45:21;;;;;;;7.45;6.80;;;;;;;;;;5026925;28;20068;-77
2022/06/26 04:47:47;;;;;;;7.35;6.75;;;;;;;;;;5025858;28;20069;-78
2022/06/26 04:50:16;;;;;;;7.13;6.60;;;;;;;;;;5024934;28;20405;-76
2022/06/26 04:52:46;;;;;;;6.82;6.43;;;;;;;;;;5024186;28;20044;-78
2022/06/26 04:55:13;;;;;;;7.03;6.30;;;;;;;;;;5026942;28;20036;-77
2022/06/26 04:57:42;;;;;;;7.05;6.55;;;;;;;;;;5022742;28;20038;-77
2022/06/26 05:00:10;;;;;;;7.32;6.85;;;;;;;;;;5024374;28;20040;-77
2022/06/26 05:02:42;;;;;;;8.50;6.72;;;;;;;;;;5024829;28;20504;-77
2022/06/26 05:05:28;;;;;;;7.28;6.60;;;;;;;;;;5016776;28;20133;-77
2022/06/26 05:08:14;;;;;;;7.35;6.85;;;;;;;;;;5028152;28;20100;-77
2022/06/26 05:10:40;;;;;;;6.90;6.50;;;;;;;;;;5023548;28;20033;-77
2022/06/26 05:13:06;;;;;;;6.97;6.57;;;;;;;;;;5022892;28;20034;-77
2022/06/26 05:15:52;;;;;;;7.03;6.47;;;;;;;;;;5003604;28;20069;-77
2022/06/26 05:18:18;;;;;;;7.47;6.82;;;;;;;;;;5025557;28;20559;-77
2022/06/26 05:20:44;;;;;;;6.97;6.47;;;;;;;;;;5032401;28;20033;-77
2022/06/26 05:23:11;;;;;;;7.40;6.90;;;;;;;;;;5034043;28;20070;-77
2022/06/26 05:25:45;;;;;;;7.45;6.88;;;;;;;;;;5033479;28;20036;-77
2022/06/26 05:28:11;;;;;;;7.13;6.63;;;;;;;;;;5018565;28;20045;-77
2022/06/26 05:30:38;;;;;;;6.85;6.30;;;;;;;;;;5026653;28;20026;-76
2022/06/26 05:33:07;;;;;;;6.63;6.22;;;;;;;;;;5026188;28;20041;-77
2022/06/26 05:35:34;;;;;;;6.88;6.28;;;;;;;;;;5026281;28;20067;-76
2022/06/26 05:38:00;;;;;;;7.43;6.82;;;;;;;;;;5023751;28;20595;-76
2022/06/26 05:40:27;;;;;;;7.15;6.28;;;;;;;;;;5040789;28;20048;-76
2022/06/26 05:42:57;;;;;;;7.22;6.60;;;;;;;;;;5032678;28;20432;-76
2022/06/26 05:45:24;;;;;;;7.15;6.50;;;;;;;;;;5037215;28;20040;-76
2022/06/26 05:48:16;;;;;;;7.20;6.70;;;;;;;;;;5028831;28;20044;-76
2022/06/26 05:50:48;;;;;;;7.38;6.78;;;;;;;;;;5029715;28;20029;-76
2022/06/26 05:53:31;;;;;;;7.15;6.60;;;;;;;;;;5026347;28;20037;-76
2022/06/26 05:56:25;;;;;;;7.28;6.78;;;;;;;;;;5025261;28;20042;-76
2022/06/26 05:59:09;;;;;;;7.30;6.75;;;;;;;;;;5028074;28;20593;-76
2022/06/26 06:01:58;;;;;;;6.97;6.57;;;;;;;;;;5027655;28;20540;-76
2022/06/26 06:04:24;;;;;;;6.68;6.25;;;;;;;;;;5031830;28;20041;-76
2022/06/26 06:06:50;;;;;;;9.75;7.10;;;;;;;;;;5034530;28;20036;-76
2022/06/26 06:09:15;;;;;;;6.57;6.18;;;;;;;;;;5031151;28;20405;-76
2022/06/26 06:11:41;;;;;;;7.47;6.70;;;;;;;;;;5029642;28;20717;-76
2022/06/26 06:14:07;;;;;;;7.22;6.63;;;;;;;;;;5033539;28;20037;-76
2022/06/26 06:16:34;;;;;;;7.20;6.60;;;;;;;;;;5028380;28;20055;-76
2022/06/26 06:18:59;;;;;;;6.88;6.35;;;;;;;;;;5022968;28;20033;-76
2022/06/26 06:21:29;;;;;;;7.22;6.55;;;;;;;;;;5035086;28;20037;-77
2022/06/26 06:23:55;;;;;;;7.15;6.65;;;;;;;;;;5037156;28;20535;-77
2022/06/26 06:26:20;;;;;;;6.90;6.40;;;;;;;;;;5021795;28;20071;-72
2022/06/26 06:28:46;;;;;;;7.05;6.55;;;;;;;;;;5041719;28;20037;-72
2022/06/26 06:31:12;;;;;;;6.93;6.32;;;;;;;;;;5023706;28;20045;-72
2022/06/26 06:33:38;;;;;;;6.90;6.30;;;;;;;;;;5035399;28;20036;-72
2022/06/26 06:36:04;;;;;;;6.50;6.00;;;;;;;;;;5026301;28;20377;-72
2022/06/26 06:38:32;;;;;;;6.20;5.75;;;;;;;;;;5031228;28;20048;-73
2022/06/26 06:41:02;;;;;;;6.43;5.93;;;;;;;;;;5032707;28;20044;-72
2022/06/26 06:43:35;;;;;;;5.80;5.40;;;;;;;;;;5019411;28;20042;-73
2022/06/26 06:46:19;;;;;;;7.15;5.60;;;;;;;;;;5038382;28;20055;-73
2022/06/26 06:49:11;;;;;;;5.93;5.43;;;;;;;;;;5013032;28;20092;-72
2022/06/26 06:51:50;;;;;;;5.70;5.30;;;;;;;;;;5040098;28;20033;-72
2022/06/26 06:54:16;;;;;;;5.72;5.32;;;;;;;;;;5033277;28;20108;-73
2022/06/26 06:56:44;;;;;;;5.63;5.15;;;;;;;;;;5021839;28;20044;-72
2022/06/26 06:59:09;;;;;;;5.40;5.00;;;;;;;;;;5026536;28;20112;-72
2022/06/26 07:01:36;;;;;;;5.63;5.13;;;;;;;;;;5026468;28;20033;-73
2022/06/26 07:04:01;;;;;;;5.57;5.18;;;;;;;;;;5033385;28;20108;-72
2022/06/26 07:06:27;;;;;;;5.32;4.90;;;;;;;;;;5040734;28;20523;-72
2022/06/26 07:08:53;;;;;;;5.50;5.05;;;;;;;;;;5020563;28;20029;-72
2022/06/26 07:11:20;;;;;;;5.60;5.10;;;;;;;;;;5029956;28;20033;-73
2022/06/26 07:13:45;;;;;;;7.18;5.28;;;;;;;;;;5029282;28;20378;-72
2022/06/26 07:16:11;;;;;;;6.00;5.38;;;;;;;;;;5028188;28;20488;-72
2022/06/26 07:18:37;;;;;;;5.22;4.75;;;;;;;;;;5029172;28;20061;-72
2022/06/26 07:21:04;;;;;;;5.72;5.20;;;;;;;;;;5027622;28;20034;-73
2022/06/26 07:23:29;;;;;;;4.93;4.63;;;;;;;;;;5027270;28;20029;-72
2022/06/26 07:26:05;;;;;;;5.03;4.47;;;;;;;;;;5023637;28;20109;-73
2022/06/26 07:28:36;;;;;;;4.72;4.35;;;;;;;;;;5028505;28;20029;-72
2022/06/26 07:31:01;;;;;;;5.10;4.70;;;;;;;;;;5023828;28;20036;-72
2022/06/26 07:36:12;;;;;;;6.32;4.70;;;;;;;;;;5026962;28;20428;-72
2022/06/26 07:38:38;;;;;;;4.95;4.55;;;;;;;;;;5028087;28;20092;-72
2022/06/26 07:41:04;;;;;;;4.72;4.43;;;;;;;;;;5023946;28;20042;-74
2022/06/26 07:43:31;;;;;;;4.47;4.25;;;;;;;;;;5030070;28;20029;-72
2022/06/26 07:45:57;;;;;;;4.75;4.45;;;;;;;;;;5029731;28;20029;-72
2022/06/26 07:48:23;;;;;;;4.55;4.25;;;;;;;;;;5026683;28;20029;-72
2022/06/26 07:50:53;;;;;;;5.05;4.60;;;;;;;;;;5029447;28;20432;-72
2022/06/26 07:53:19;;;;;;;5.13;4.60;;;;;;;;;;5028139;28;20041;-73
2022/06/26 07:55:45;;;;;;;5.05;4.70;;;;;;;;;;5022981;28;20128;-74
2022/06/26 07:58:11;;;;;;;5.00;4.60;;;;;;;;;;5026364;28;20121;-72
2022/06/26 08:00:36;;;;;;;4.75;4.35;;;;;;;;;;5033258;28;20037;-73
2022/06/26 08:03:07;;;;;;;4.70;4.30;;;;;;;;;;5031901;28;20034;-74
2022/06/26 08:05:32;;;;;;;4.50;4.20;;;;;;;;;;5028587;28;20048;-72
2022/06/26 08:07:58;;;;;;;4.60;4.30;;;;;;;;;;5025243;28;20033;-73
2022/06/26 08:10:24;;;;;;;4.80;4.40;;;;;;;;;;5024567;28;20052;-73
2022/06/26 08:12:49;;;;;;;4.68;4.28;;;;;;;;;;5026573;28;20061;-73
2022/06/26 08:15:15;;;;;;;4.60;4.22;;;;;;;;;;5022725;28;20033;-73
2022/06/26 08:17:41;;;;;;;4.70;4.40;;;;;;;;;;5026281;28;20765;-73
2022/06/26 08:20:07;;;;;;;4.30;4.10;;;;;;;;;;5023364;28;20044;-73
2022/06/26 08:22:32;;;;;;;4.55;4.22;;;;;;;;;;5022920;28;20056;-72
2022/06/26 08:24:58;;;;;;;4.45;4.07;;;;;;;;;;5022669;28;20125;-73
2022/06/26 08:27:23;;;;;;;5.18;4.78;;;;;;;;;;5023158;28;20447;-73
2022/06/26 08:29:49;;;;;;;4.40;4.10;;;;;;;;;;5027147;28;20041;-73
2022/06/26 08:32:15;;;;;;;4.40;4.20;;;;;;;;;;5023760;28;20412;-73
2022/06/26 08:34:41;;;;;;;4.60;4.30;;;;;;;;;;5027441;28;20043;-73
2022/06/26 08:37:07;;;;;;;4.43;4.13;;;;;;;;;;5022153;28;20065;-72
2022/06/26 08:39:35;;;;;;;4.20;3.90;;;;;;;;;;5024241;28;20183;-73
2022/06/26 08:42:02;;;;;;;4.15;3.95;;;;;;;;;;5027301;28;20034;-73
2022/06/26 08:44:28;;;;;;;4.05;3.75;;;;;;;;;;5023486;28;20040;-74
2022/06/26 08:46:54;;;;;;;4.22;3.83;;;;;;;;;;5024340;28;20018;-73
2022/06/26 08:49:23;;;;;;;4.25;3.88;;;;;;;;;;5027655;28;20041;-74
2022/06/26 08:51:51;;;;;;;4.40;4.10;;;;;;;;;;5021336;28;20040;-73
2022/06/26 08:54:18;;;;;;;4.30;4.00;;;;;;;;;;5024114;28;20392;-73
2022/06/26 08:56:48;;;;;;;4.40;4.10;;;;;;;;;;5023214;28;20116;-72
2022/06/26 08:59:15;;;;;;;4.40;4.10;;;;;;;;;;5019294;28;20042;-74
2022/06/26 09:01:41;;;;;;;4.28;3.97;;;;;;;;;;5036326;28;20043;-74
2022/06/26 09:04:08;;;;;;;4.10;3.90;;;;;;;;;;5037507;28;20109;-74
2022/06/26 09:06:35;;;;;;;4.60;4.10;;;;;;;;;;5026735;28;20033;-73
2022/06/26 09:09:11;;;;;;;4.50;4.05;;;;;;;;;;5021475;28;20037;-75
2022/06/26 09:11:38;;;;;;;4.32;4.03;;;;;;;;;;5026939;28;20036;-73
2022/06/26 09:14:03;;;;;;;4.32;3.97;;;;;;;;;;5020207;28;20057;-74
2022/06/26 09:16:35;;;;;;;4.10;3.90;;;;;;;;;;5025575;28;20501;-73
2022/06/26 09:19:16;;;;;;;3.95;3.65;;;;;;;;;;5020551;28;20045;-74
2022/06/26 09:21:42;;;;;;;3.83;3.63;;;;;;;;;;5025335;28;20021;-73
2022/06/26 09:24:19;;;;;;;3.85;3.65;;;;;;;;;;5021601;28;20045;-73
2022/06/26 09:27:00;;;;;;;3.85;3.60;;;;;;;;;;5024579;28;20401;-74
2022/06/26 09:29:25;;;;;;;3.65;3.45;;;;;;;;;;5025538;28;20100;-74
2022/06/26 09:31:51;;;;;;;5.30;3.60;;;;;;;;;;5020710;28;20033;-73
2022/06/26 09:34:23;;;;;;;3.70;3.50;;;;;;;;;;5026077;28;20049;-73
2022/06/26 09:36:58;;;;;;;3.83;3.53;;;;;;;;;;5024389;28;20036;-73
2022/06/26 09:39:25;;;;;;;3.50;3.30;;;;;;;;;;5026073;28;20569;-75
2022/06/26 09:41:50;;;;;;;3.25;3.10;;;;;;;;;;5025154;28;20044;-73
2022/06/26 09:44:20;;;;;;;3.10;3.00;;;;;;;;;;5022213;28;20037;-73
2022/06/26 09:46:46;;;;;;;3.35;3.15;;;;;;;;;;5016412;28;20041;-74
2022/06/26 09:49:12;;;;;;;3.50;3.33;;;;;;;;;;5028886;28;20044;-72
2022/06/26 09:51:38;;;;;;;3.78;3.47;;;;;;;;;;5038458;28;20180;-72
2022/06/26 09:54:04;;;;;;;3.67;3.47;;;;;;;;;;5026095;28;20036;-73
2022/06/26 09:56:31;;;;;;;3.80;3.58;;;;;;;;;;5022633;28;20033;-74
2022/06/26 09:58:59;;;;;;;3.53;3.28;;;;;;;;;;5021333;28;20038;-72
2022/06/26 10:07:06;;;;;;;5.53;3.78;;;;;;;;;;5062559;28;20406;-64
2022/06/26 10:09:34;;;;;;;3.75;3.53;;;;;;;;;;5065024;28;20037;-63
2022/06/26 10:12:03;;;;;;;4.03;3.75;;;;;;;;;;5059579;28;20045;-64
2022/06/26 10:14:33;;;;;;;4.00;3.70;;;;;;;;;;5059919;28;20043;-64
2022/06/26 10:17:25;;;;;;;3.95;3.65;;;;;;;;;;5058705;28;20566;-64
2022/06/26 10:19:50;;;;;;;3.88;3.60;;;;;;;;;;5072534;22;20504;-70
2022/06/26 10:22:16;;;;;;;3.70;3.50;;;;;;;;;;5043115;28;20052;-69
2022/06/26 10:24:56;;;;;;;3.70;3.50;;;;;;;;;;5042253;28;20134;-69
2022/06/26 10:27:33;;;;;;;3.47;3.28;;;;;;;;;;5042579;28;20498;-69
2022/06/26 10:30:15;;;;;;;3.85;3.65;;;;;;;;;;5043340;28;20097;-69
2022/06/26 10:32:41;;;;;;;3.80;3.58;;;;;;;;;;5056867;28;20044;-69
2022/06/26 10:35:08;;;;;;;3.58;3.33;;;;;;;;;;5062527;28;20051;-69
2022/06/26 10:37:45;;;;;;;3.60;3.40;;;;;;;;;;5062954;28;20499;-69
2022/06/26 10:42:52;;;;;;;3.85;3.65;;;;;;;;;;5057012;28;20038;-70
2022/06/26 10:43:00;;;;;;;3.67;3.47;;;;;;;;;;5062160;28;20128;-69
2022/06/26 10:45:31;;;;;;;3.28;3.08;;;;;;;;;;5061999;28;20047;-69
2022/06/26 10:48:02;;;;;;;3.60;3.30;;;;;;;;;;5054794;28;20056;-69
2022/06/26 10:50:31;;;;;;;3.60;3.40;;;;;;;;;;5062147;28;20078;-69
2022/06/26 10:53:26;;;;;;;3.60;3.30;;;;;;;;;;5061943;28;20082;-70
2022/06/26 10:55:57;;;;;;;3.65;3.00;;;;;;;;;;5058772;28;20072;-69
2022/06/26 10:58:30;;;;;;;3.30;3.10;;;;;;;;;;5061614;28;20040;-69
2022/06/26 11:00:58;;;;;;;3.20;3.10;;;;;;;;;;5059494;28;20072;-69
2022/06/26 11:03:25;;;;;;;3.30;3.10;;;;;;;;;;5059389;28;20267;-69
2022/06/26 11:06:24;;;;;;;3.28;3.08;;;;;;;;;;5061172;28;20498;-69
2022/06/26 11:08:52;;;;;;;3.17;2.97;;;;;;;;;;5019041;28;20606;-69
2022/06/26 11:11:20;;;;;;;3.05;2.85;;;;;;;;;;5019116;28;20046;-69
2022/06/26 11:13:52;;;;;;;3.80;3.50;;;;;;;;;;5011897;28;20046;-69
2022/06/26 11:16:26;;;;;;;3.13;3.03;;;;;;;;;;5016706;28;20614;-69
2022/06/26 11:18:52;;;;;;;3.40;3.20;;;;;;;;;;5005852;28;20045;-69
2022/06/26 11:21:18;;;;;;;3.65;3.45;;;;;;;;;;5006156;28;20427;-69
2022/06/26 11:23:44;;;;;;;4.00;3.80;;;;;;;;;;5005227;28;20042;-68
2022/06/26 11:26:13;;;;;;;3.58;3.45;;;;;;;;;;4994887;28;20080;-68
2022/06/26 11:28:41;;;;;;;3.67;3.40;;;;;;;;;;5005181;28;20156;-68
2022/06/26 11:31:09;;;;;;;3.60;3.40;;;;;;;;;;5005763;28;20050;-68
2022/06/26 11:33:36;;;;;;;4.43;4.03;;;;;;;;;;5004422;28;20041;-68
2022/06/26 11:36:15;;;;;;;4.05;3.85;;;;;;;;;;4999402;28;20037;-68
2022/06/26 11:38:52;;;;;;;3.75;3.55;;;;;;;;;;5005690;28;20050;-68
2022/06/26 11:41:18;;;;;;;3.80;3.60;;;;;;;;;;5002764;28;20533;-68
2022/06/26 11:43:45;;;;;;;4.10;3.90;;;;;;;;;;4999482;28;20548;-69
2022/06/26 11:46:11;;;;;;;3.60;3.40;;;;;;;;;;5044081;28;20099;-68
2022/06/26 11:48:37;;;;;;;3.60;3.35;;;;;;;;;;5046477;28;20036;-69
2022/06/26 11:51:03;;;;;;;4.00;3.80;;;;;;;;;;5047908;28;20049;-69
2022/06/26 11:53:31;;;;;;;3.90;3.63;;;;;;;;;;5044669;28;20044;-68
2022/06/26 11:55:58;;;;;;;;;;;;;;;;;;5048077;28;20033;-69
2022/06/26 11:58:26;;;;;;;4.28;4.00;;;;;;;;;;5046045;28;19943;-68
2022/06/26 12:01:10;;;;;;;4.22;3.80;;;;;;;;;;5041558;28;20033;-68
2022/06/26 12:03:48;;;;;;;4.00;3.80;;;;;;;;;;5047337;28;20028;-68
2022/06/26 12:06:36;;;;;;;4.30;4.10;;;;;;;;;;5047662;28;20040;-69
2022/06/26 12:09:25;;;;;;;7.47;4.13;;;;;;;;;;5046358;28;20508;-69
2022/06/26 12:11:54;;;;;;;4.30;4.10;;;;;;;;;;5044650;28;20318;-69
2022/06/26 12:14:21;;;;;;;;;;;;;;;;;;5047724;28;20036;-69
2022/06/26 12:16:49;;;;;;;4.75;4.32;;;;;;;;;;5047401;28;19978;-69
2022/06/26 12:19:16;;;;;;;4.03;3.83;;;;;;;;;;5047143;28;20068;-69
2022/06/26 12:21:45;;;;;;;4.97;4.47;;;;;;;;;;5043690;28;20029;-68
2022/06/26 12:24:11;;;;;;;4.43;4.22;;;;;;;;;;5045566;28;20048;-69
2022/06/26 12:26:38;;;;;;;4.65;4.32;;;;;;;;;;5048839;28;20048;-69
2022/06/26 12:29:12;;;;;;;4.60;4.30;;;;;;;;;;5042829;28;20072;-69
2022/06/26 12:31:39;;;;;;;4.20;4.00;;;;;;;;;;5045804;28;20094;-69
2022/06/26 12:34:04;;;;;;;4.20;4.00;;;;;;;;;;5048168;28;20051;-69
2022/06/26 12:36:31;;;;;;;4.18;3.97;;;;;;;;;;5040131;28;20030;-69
2022/06/26 12:38:57;;;;;;;4.43;4.07;;;;;;;;;;5048249;28;20040;-69
2022/06/26 12:41:23;;;;;;;4.47;4.18;;;;;;;;;;5048074;28;20090;-69
2022/06/26 12:43:56;;;;;;;4.20;4.00;;;;;;;;;;5048049;28;20033;-69
2022/06/26 12:46:22;;;;;;;4.10;3.90;;;;;;;;;;5047133;28;20067;-69
2022/06/26 12:48:48;;;;;;;4.13;3.92;;;;;;;;;;5041232;28;20045;-69
2022/06/26 12:51:14;;;;;;;4.00;3.80;;;;;;;;;;5046554;28;20060;-69
2022/06/26 12:53:41;;;;;;;4.28;3.97;;;;;;;;;;5044229;28;20064;-69
2022/06/26 12:56:09;;;;;;;3.95;3.75;;;;;;;;;;5043613;28;20097;-69
2022/06/26 12:58:35;;;;;;;4.03;3.83;;;;;;;;;;5046427;28;20039;-69
2022/06/26 13:01:01;;;;;;;4.22;3.92;;;;;;;;;;5046695;28;20037;-68
2022/06/26 13:03:26;;;;;;;4.15;3.95;;;;;;;;;;5043038;28;20064;-69
2022/06/26 13:05:52;;;;;;;5.53;3.97;;;;;;;;;;5046731;28;20406;-69
2022/06/26 13:08:18;;;;;;;4.80;4.35;;;;;;;;;;5046320;28;20037;-69
2022/06/26 13:10:44;;;;;;;3.97;3.78;;;;;;;;;;5044799;28;20067;-69
2022/06/26 13:13:11;;;;;;;4.10;3.90;;;;;;;;;;5045947;28;20055;-69
2022/06/26 13:15:37;;;;;;;4.13;3.92;;;;;;;;;;5046572;28;20521;-69
2022/06/26 13:18:02;;;;;;;4.32;4.05;;;;;;;;;;5046830;28;20579;-69
2022/06/26 13:20:28;;;;;;;4.15;3.90;;;;;;;;;;5044470;28;20121;-68
2022/06/26 13:22:54;;;;;;;4.18;3.90;;;;;;;;;;5046116;28;20506;-69
2022/06/26 13:25:20;;;;;;;3.88;3.67;;;;;;;;;;5041740;28;20519;-69
2022/06/26 13:27:45;;;;;;;4.28;4.07;;;;;;;;;;5044903;28;20590;-69
2022/06/26 13:30:11;;;;;;;4.50;4.20;;;;;;;;;;5045664;28;20060;-69
2022/06/26 13:32:37;;;;;;;4.32;4.03;;;;;;;;;;5043354;28;20442;-69
2022/06/26 13:35:04;;;;;;;4.15;3.95;;;;;;;;;;5043179;28;20036;-69
2022/06/26 13:37:29;;;;;;;3.88;3.67;;;;;;;;;;5044172;28;20036;-69
2022/06/26 13:39:55;;;;;;;4.20;4.00;;;;;;;;;;5045494;28;20037;-68
2022/06/26 13:42:20;;;;;;;4.10;3.90;;;;;;;;;;5045708;28;20093;-69
2022/06/26 13:44:46;;;;;;;4.40;4.10;;;;;;;;;;5044312;28;20033;-69
2022/06/26 13:47:12;;;;;;;4.35;4.10;;;;;;;;;;5045773;28;20637;-68
2022/06/26 13:49:40;;;;;;;4.20;4.00;;;;;;;;;;5045717;28;20033;-69
2022/06/26 13:52:07;;;;;;;4.40;4.10;;;;;;;;;;5040250;28;20119;-68
2022/06/26 13:54:33;;;;;;;4.50;4.10;;;;;;;;;;5043468;28;20450;-69
2022/06/26 13:57:00;;;;;;;4.55;4.22;;;;;;;;;;5045569;28;20792;-69
2022/06/26 13:59:25;;;;;;;4.38;4.05;;;;;;;;;;5045133;28;20029;-69
2022/06/26 14:01:51;;;;;;;4.50;4.30;;;;;;;;;;5042051;28;20170;-69
2022/06/26 14:04:16;;;;;;;4.28;3.97;;;;;;;;;;5044042;28;20033;-66
2022/06/26 14:06:42;;;;;;;4.20;3.90;;;;;;;;;;5045292;28;20568;-69
2022/06/26 14:09:08;;;;;;;4.53;4.20;;;;;;;;;;5045806;28;20079;-68
2022/06/26 14:11:33;;;;;;;4.40;4.20;;;;;;;;;;5042644;28;20033;-69
2022/06/26 14:13:59;;;;;;;4.30;4.10;;;;;;;;;;5045521;28;20041;-68
2022/06/26 14:16:25;;;;;;;4.10;3.90;;;;;;;;;;5045748;28;20045;-69
2022/06/26 14:18:50;;;;;;;4.85;4.63;;;;;;;;;;5044481;28;20040;-68
2022/06/26 14:21:16;;;;;;;4.72;4.40;;;;;;;;;;5044774;28;20033;-68
2022/06/26 14:26:26;;;;;;;4.50;4.10;;;;;;;;;;5045264;28;20047;-68
2022/06/26 14:28:52;;;;;;;4.50;4.10;;;;;;;;;;5043651;28;20507;-68
2022/06/26 14:31:17;;;;;;;3.80;3.60;;;;;;;;;;5045285;28;20112;-68
2022/06/26 14:33:44;;;;;;;5.90;4.30;;;;;;;;;;5044490;28;20064;-68
2022/06/26 14:36:10;;;;;;;4.20;3.90;;;;;;;;;;5040723;28;20090;-68
2022/06/26 14:38:36;;;;;;;4.28;4.07;;;;;;;;;;5045342;28;20037;-69
2022/06/26 14:41:03;;;;;;;3.92;3.70;;;;;;;;;;5045469;28;20044;-69
2022/06/26 14:43:30;;;;;;;4.07;3.83;;;;;;;;;;5045664;28;20045;-68
2022/06/26 14:45:55;;;;;;;4.28;4.07;;;;;;;;;;5043281;28;20571;-69
2022/06/26 14:48:21;;;;;;;4.28;3.97;;;;;;;;;;5045270;28;20116;-69
2022/06/26 14:50:46;;;;;;;4.03;3.83;;;;;;;;;;5045990;28;20037;-69
2022/06/26 14:53:13;;;;;;;4.13;3.92;;;;;;;;;;5046269;28;20051;-68
2022/06/26 14:55:38;;;;;;;4.60;4.30;;;;;;;;;;5047119;28;20523;-69
2022/06/26 14:58:09;;;;;;;4.63;4.32;;;;;;;;;;5048937;28;20040;-68
2022/06/26 15:00:35;;;;;;;4.82;4.53;;;;;;;;;;5045192;28;20033;-68
2022/06/26 15:03:00;;;;;;;4.95;4.50;;;;;;;;;;5047599;28;20071;-68